Airfield :
LOGIN :

Register | Disclaimer

   EN    FR    IT 

 










Legend :    VFR   Marginal VFR   IFR   Intensive IFR   Very Intensive IFR
Visi :
Ceiling :
>= 8 km
>= 3000ft
5 to 8 km
1000 to 3000 ft
1500m to 5 km
500 to 1000 ft
800 to 1500m
200 to 500 ft
< 800m
< 200 ft
Symbols :   Thunderstorms  Fog  Heavy snow  Heavy precipitations  Wind > 20 kt
SIGMETs :     Misc.  Thunderstorms  Icing  Turbulence  Mountain Waves  Volcanic Ashes






- Airport Elevation : 1470 ft


LSMD - Dubendorf Military

CURRENT METAR :
  • 280450Z AUTO VRB02KT 9999NDV OVC029 07/04 Q1017 RMK

EXPIRED METARs :
  • 280420Z AUTO 08003KT 040V120 9999NDV OVC028 07/04 Q1017 RMK
  • 280350Z AUTO VRB02KT 9999NDV OVC032 07/04 Q1016 RMK
  • 280320Z AUTO 07003KT 020V140 9000NDV OVC035 07/05 Q1016 RMK
  • 280250Z AUTO 06003KT 010V100 9000NDV OVC036 07/05 Q1016 RMK
  • 280220Z AUTO 06003KT 360V110 9000NDV OVC035 07/05 Q1016 RMK
  • 280150Z AUTO VRB02KT 8000NDV OVC032 07/05 Q1016 RMK
  • 280120Z AUTO VRB02KT 8000NDV OVC031 07/05 Q1016 RMK
  • 280050Z AUTO VRB02KT 8000NDV OVC030 07/05 Q1016 RMK
  • 280020Z AUTO 06003KT 010V120 7000NDV OVC029 07/05 Q1015 RMK

Expired Forecast.



MET'MAP, your aeronautical weather chart ! - Copyright ORBIFLY December 2007 - Disclaimer

ORBIFLY MET'MAP TEAM :

Programming & Development : Alexandra Zaïnal
Original concept : Baudouin d'Aumeries
Technical & hardware support : Manuel Goepfert
Assistance : Marc-Olivier Méhu




SOURCES & CREDITS :

   NOAA